Time;durP1;ratioP1;P1;durP2;ratioP2;P2;SDS_P1;SDS_P2;PMS_P1;PMS_P2;Temp;Humidity;BMP_temperature;BMP_pressure;BME280_temperature;BME280_humidity;BME280_pressure;Samples;Min_cycle;Max_cycle;Signal;HPM_P1;HPM_P2
2022/04/25 00:02:03;;;;;;;;;;;;;;;;;;5113958;28;19908;-56
2022/04/25 00:04:29;;;;;;;;;;;;;;;;;;5114016;28;19919;-58
2022/04/25 00:06:56;;;;;;;;;;;;;;;;;;5113579;28;19916;-56
2022/04/25 00:09:22;;;;;;;;;;;;;;;;;;5113601;28;20161;-57
2022/04/25 00:11:49;;;;;;;;;;;;;;;;;;5107542;28;20211;-48
2022/04/25 00:14:15;;;;;;;;;;;;;;;;;;5094116;28;19950;-58
2022/04/25 00:16:42;;;;;;;;;;;;;;;;;;5093659;28;19909;-52
2022/04/25 00:19:08;;;;;;;;;;;;;;;;;;5093215;28;19992;-54
2022/04/25 00:21:35;;;;;;;;;;;;;;;;;;5093449;28;19908;-51
2022/04/25 00:24:01;;;;;;;;;;;;;;;;;;5093046;28;19908;-53
2022/04/25 00:26:28;;;;;;;;;;;;;;;;;;5093844;28;19912;-51
2022/04/25 00:28:54;;;;;;;;;;;;;;;;;;5093211;28;19916;-51
2022/04/25 00:31:21;;;;;;;;;;;;;;;;;;5092710;28;20320;-57
2022/04/25 00:33:47;;;;;;;;;;;;;;;;;;5092485;28;19971;-52
2022/04/25 00:36:14;;;;;;;;;;;;;;;;;;5093424;28;19908;-59
2022/04/25 00:38:40;;;;;;;;;;;;;;;;;;5092578;28;19963;-58
2022/04/25 00:41:07;;;;;;;;;;;;;;;;;;5092118;28;19958;-50
2022/04/25 00:43:33;;;;;;;;;;;;;;;;;;5093516;28;19912;-52
2022/04/25 00:46:00;;;;;;;;;;;;;;;;;;5093175;28;19912;-47
2022/04/25 00:48:26;;;;;;;;;;;;;;;;;;5093260;28;20270;-49
2022/04/25 00:50:52;;;;;;;;;;;;;;;;;;5093047;28;19930;-51
2022/04/25 00:53:19;;;;;;;;;;;;;;;;;;5109012;28;19908;-60
2022/04/25 00:55:45;;;;;;;;;;;;;;;;;;5113185;28;19908;-54
2022/04/25 00:58:13;;;;;;;;;;;;;;;;;;5100190;28;19908;-53
2022/04/25 01:00:40;;;;;;;;;;;;;;;;;;5092790;28;19954;-52
2022/04/25 01:03:06;;;;;;;;;;;;;;;;;;5092503;28;20007;-54
2022/04/25 01:05:33;;;;;;;;;;;;;;;;;;5109301;28;19919;-54
2022/04/25 01:07:59;;;;;;;;;;;;;;;;;;5112735;28;19923;-49
2022/04/25 01:10:26;;;;;;;;;;;;;;;;;;5117131;28;19908;-54
2022/04/25 01:12:52;;;;;;;;;;;;;;;;;;5116997;28;19908;-54
2022/04/25 01:15:19;;;;;;;;;;;;;;;;;;5116791;28;20259;-53
2022/04/25 01:17:45;;;;;;;;;;;;;;;;;;5117328;28;19937;-56
2022/04/25 01:20:11;;;;;;;;;;;;;;;;;;5117073;28;19908;-54
2022/04/25 01:22:38;;;;;;;;;;;;;;;;;;5116951;28;20251;-53
2022/04/25 01:27:49;;;;;;;;;;;;;;;;;;5116786;28;20396;-55
2022/04/25 01:30:15;;;;;;;;;;;;;;;;;;5116594;28;19908;-49
2022/04/25 01:32:42;;;;;;;;;;;;;;;;;;5116458;28;19931;-48
2022/04/25 01:35:09;;;;;;;;;;;;;;;;;;5116078;27;20013;-54
2022/04/25 01:37:35;;;;;;;;;;;;;;;;;;5116461;28;19914;-56
2022/04/25 01:40:02;;;;;;;;;;;;;;;;;;5116803;28;20040;-52
2022/04/25 01:42:28;;;;;;;;;;;;;;;;;;5116516;28;19918;-40
2022/04/25 01:44:55;;;;;;;;;;;;;;;;;;5115385;28;19915;-45
2022/04/25 01:47:21;;;;;;;;;;;;;;;;;;5115891;28;19996;-40
2022/04/25 01:49:47;;;;;;;;;;;;;;;;;;5115800;27;20381;-44
2022/04/25 01:52:14;;;;;;;;;;;;;;;;;;5116468;28;20009;-39
2022/04/25 01:54:41;;;;;;;;;;;;;;;;;;5116277;28;19912;-45
2022/04/25 01:57:07;;;;;;;;;;;;;;;;;;5115393;28;19915;-39
2022/04/25 01:59:34;;;;;;;;;;;;;;;;;;5116384;28;19908;-45
2022/04/25 02:02:01;;;;;;;;;;;;;;;;;;5116040;28;19911;-41
2022/04/25 02:04:29;;;;;;;;;;;;;;;;;;5116264;28;20331;-45
2022/04/25 02:06:55;;;;;;;;;;;;;;;;;;5115471;28;20070;-42
2022/04/25 02:09:23;;;;;;;;;;;;;;;;;;5115401;28;19916;-41
2022/04/25 02:11:49;;;;;;;;;;;;;;;;;;5114401;28;19915;-43
2022/04/25 02:14:16;;;;;;;;;;;;;;;;;;5115504;28;19947;-43
2022/04/25 02:16:42;;;;;;;;;;;;;;;;;;5115643;28;20357;-43
2022/04/25 02:19:09;;;;;;;;;;;;;;;;;;5115687;28;20282;-46
2022/04/25 02:21:35;;;;;;;;;;;;;;;;;;5115089;28;19912;-43
2022/04/25 02:24:02;;;;;;;;;;;;;;;;;;5115501;28;19915;-48
2022/04/25 02:26:29;;;;;;;;;;;;;;;;;;5115867;28;19915;-47
2022/04/25 02:28:55;;;;;;;;;;;;;;;;;;5115740;28;19922;-43
2022/04/25 02:31:24;;;;;;;;;;;;;;;;;;5115656;28;19946;-50
2022/04/25 02:33:51;;;;;;;;;;;;;;;;;;5115423;28;20354;-48
2022/04/25 02:36:17;;;;;;;;;;;;;;;;;;5114410;27;19979;-43
2022/04/25 02:38:44;;;;;;;;;;;;;;;;;;5115030;28;19908;-55
2022/04/25 02:41:10;;;;;;;;;;;;;;;;;;5115070;28;19919;-43
2022/04/25 02:43:37;;;;;;;;;;;;;;;;;;5115096;28;19927;-44
2022/04/25 02:46:03;;;;;;;;;;;;;;;;;;5115333;28;19908;-52
2022/04/25 02:48:30;;;;;;;;;;;;;;;;;;5114576;28;20366;-51
2022/04/25 02:50:57;;;;;;;;;;;;;;;;;;5114894;28;20337;-48
2022/04/25 02:53:24;;;;;;;;;;;;;;;;;;5114474;28;19915;-52
2022/04/25 02:55:51;;;;;;;;;;;;;;;;;;5114772;28;20378;-49
2022/04/25 02:58:17;;;;;;;;;;;;;;;;;;5115438;28;19903;-53
2022/04/25 03:00:46;;;;;;;;;;;;;;;;;;5109878;28;19999;-45
2022/04/25 03:03:12;;;;;;;;;;;;;;;;;;5093928;28;19995;-52
2022/04/25 03:05:39;;;;;;;;;;;;;;;;;;5093680;28;19999;-54
2022/04/25 03:08:05;;;;;;;;;;;;;;;;;;5094530;28;19924;-50
2022/04/25 03:10:32;;;;;;;;;;;;;;;;;;5094111;28;19908;-51
2022/04/25 03:13:00;;;;;;;;;;;;;;;;;;5094850;28;20243;-50
2022/04/25 03:15:26;;;;;;;;;;;;;;;;;;5094240;28;19931;-55
2022/04/25 03:17:53;;;;;;;;;;;;;;;;;;5094152;28;19912;-48
2022/04/25 03:20:19;;;;;;;;;;;;;;;;;;5094141;28;19908;-48
2022/04/25 03:22:46;;;;;;;;;;;;;;;;;;5094232;28;19908;-51
2022/04/25 03:25:12;;;;;;;;;;;;;;;;;;5093811;28;19948;-49
2022/04/25 03:27:38;;;;;;;;;;;;;;;;;;5094010;28;19912;-47
2022/04/25 03:30:05;;;;;;;;;;;;;;;;;;5094007;28;19912;-51
2022/04/25 03:32:32;;;;;;;;;;;;;;;;;;5093253;28;19919;-48
2022/04/25 03:34:59;;;;;;;;;;;;;;;;;;5107785;28;20243;-51
2022/04/25 03:37:26;;;;;;;;;;;;;;;;;;5114434;28;19908;-53
2022/04/25 03:39:52;;;;;;;;;;;;;;;;;;5113949;28;19908;-42
2022/04/25 03:42:19;;;;;;;;;;;;;;;;;;5114332;28;19908;-45
2022/04/25 03:44:45;;;;;;;;;;;;;;;;;;5095536;28;19912;-45
2022/04/25 03:47:12;;;;;;;;;;;;;;;;;;5093163;28;19927;-44
2022/04/25 03:49:38;;;;;;;;;;;;;;;;;;5101491;28;19967;-40
2022/04/25 03:52:05;;;;;;;;;;;;;;;;;;5113430;28;19915;-41
2022/04/25 03:57:17;;;;;;;;;;;;;;;;;;5081880;28;19998;-39
2022/04/25 03:59:44;;;;;;;;;;;;;;;;;;5114145;28;19912;-41
2022/04/25 04:02:10;;;;;;;;;;;;;;;;;;5113597;28;19946;-42
2022/04/25 04:04:37;;;;;;;;;;;;;;;;;;5113343;28;19962;-52
2022/04/25 04:07:03;;;;;;;;;;;;;;;;;;5113066;28;19907;-42
2022/04/25 04:09:45;;;;;;;;;;;;;;;;;;5113054;28;19916;-50
2022/04/25 04:12:12;;;;;;;;;;;;;;;;;;5114235;28;19915;-44
2022/04/25 04:14:38;;;;;;;;;;;;;;;;;;5113619;28;19908;-43
2022/04/25 04:17:07;;;;;;;;;;;;;;;;;;5113213;28;19912;-41
2022/04/25 04:19:34;;;;;;;;;;;;;;;;;;5113165;28;19933;-50
2022/04/25 04:22:02;;;;;;;;;;;;;;;;;;5113361;28;19943;-47
2022/04/25 04:24:28;;;;;;;;;;;;;;;;;;5113422;28;19912;-44
2022/04/25 04:26:58;;;;;;;;;;;;;;;;;;5112918;28;19908;-49
2022/04/25 04:29:24;;;;;;;;;;;;;;;;;;5113388;28;19916;-49
2022/04/25 04:31:51;;;;;;;;;;;;;;;;;;5113895;28;19912;-46
2022/04/25 04:34:17;;;;;;;;;;;;;;;;;;5113301;28;19908;-50
2022/04/25 04:36:44;;;;;;;;;;;;;;;;;;5112548;28;19908;-48
2022/04/25 04:39:10;;;;;;;;;;;;;;;;;;5112267;28;20342;-47
2022/04/25 04:41:37;;;;;;;;;;;;;;;;;;5112647;28;20410;-47
2022/04/25 04:44:03;;;;;;;;;;;;;;;;;;5113559;28;20007;-46
2022/04/25 04:46:30;;;;;;;;;;;;;;;;;;5112882;28;19908;-44
2022/04/25 04:48:56;;;;;;;;;;;;;;;;;;5112733;28;20366;-49
2022/04/25 04:51:23;;;;;;;;;;;;;;;;;;5113026;28;20308;-48
2022/04/25 04:53:49;;;;;;;;;;;;;;;;;;5113360;28;19995;-46
2022/04/25 04:56:16;;;;;;;;;;;;;;;;;;5107255;28;19935;-43
2022/04/25 04:58:42;;;;;;;;;;;;;;;;;;5092280;28;19934;-47
2022/04/25 05:01:09;;;;;;;;;;;;;;;;;;5092954;28;20282;-54
2022/04/25 05:03:36;;;;;;;;;;;;;;;;;;5092650;28;20315;-49
2022/04/25 05:06:03;;;;;;;;;;;;;;;;;;5092413;28;19927;-52
2022/04/25 05:08:29;;;;;;;;;;;;;;;;;;5092799;28;19970;-50
2022/04/25 05:10:56;;;;;;;;;;;;;;;;;;5092607;28;19915;-45
2022/04/25 05:13:22;;;;;;;;;;;;;;;;;;5092188;28;19920;-50
2022/04/25 05:15:49;;;;;;;;;;;;;;;;;;5092306;28;19908;-49
2022/04/25 05:18:15;;;;;;;;;;;;;;;;;;5092569;28;19954;-52
2022/04/25 05:20:42;;;;;;;;;;;;;;;;;;5092748;28;19909;-56
2022/04/25 05:23:11;;;;;;;;;;;;;;;;;;5092576;28;20350;-52
2022/04/25 05:25:38;;;;;;;;;;;;;;;;;;5097722;28;19908;-55
2022/04/25 05:28:05;;;;;;;;;;;;;;;;;;5111305;28;19923;-52
2022/04/25 05:30:32;;;;;;;;;;;;;;;;;;5112761;28;20255;-51
2022/04/25 05:33:02;;;;;;;;;;;;;;;;;;5112211;28;20196;-42
2022/04/25 05:35:28;;;;;;;;;;;;;;;;;;5112969;28;19938;-56
2022/04/25 05:37:55;;;;;;;;;;;;;;;;;;5112612;28;19904;-48
2022/04/25 05:40:21;;;;;;;;;;;;;;;;;;5112635;28;20362;-55
2022/04/25 05:42:48;;;;;;;;;;;;;;;;;;5112249;28;19916;-46
2022/04/25 05:45:14;;;;;;;;;;;;;;;;;;5112548;28;20057;-51
2022/04/25 05:47:41;;;;;;;;;;;;;;;;;;5112077;28;19941;-53
2022/04/25 05:52:52;;;;;;;;;;;;;;;;;;5113028;28;20317;-51
2022/04/25 05:55:18;;;;;;;;;;;;;;;;;;5114648;28;19908;-44
2022/04/25 05:57:45;;;;;;;;;;;;;;;;;;5116274;28;20357;-55
2022/04/25 06:00:11;;;;;;;;;;;;;;;;;;5115882;28;19907;-46
2022/04/25 06:02:38;;;;;;;;;;;;;;;;;;5116560;28;19912;-54
2022/04/25 06:05:05;;;;;;;;;;;;;;;;;;5115357;28;20280;-52
2022/04/25 06:07:31;;;;;;;;;;;;;;;;;;5116100;27;19916;-53
2022/04/25 06:09:58;;;;;;;;;;;;;;;;;;5116216;28;19977;-50
2022/04/25 06:12:24;;;;;;;;;;;;;;;;;;5116092;28;19919;-58
2022/04/25 06:14:51;;;;;;;;;;;;;;;;;;5116028;28;19912;-41
2022/04/25 06:17:18;;;;;;;;;;;;;;;;;;5115746;28;19908;-42
2022/04/25 06:19:45;;;;;;;;;;;;;;;;;;5116473;28;19944;-40
2022/04/25 06:22:11;;;;;;;;;;;;;;;;;;5115719;28;19908;-40
2022/04/25 06:24:38;;;;;;;;;;;;;;;;;;5115904;28;19947;-42
2022/04/25 06:27:05;;;;;;;;;;;;;;;;;;5115866;28;19916;-40
2022/04/25 06:29:32;;;;;;;;;;;;;;;;;;5115780;28;20288;-42
2022/04/25 06:32:02;;;;;;;;;;;;;;;;;;5115403;28;19908;-45
2022/04/25 06:34:29;;;;;;;;;;;;;;;;;;5114344;28;19908;-41
2022/04/25 06:36:55;;;;;;;;;;;;;;;;;;5115375;28;19908;-43
2022/04/25 06:39:22;;;;;;;;;;;;;;;;;;5115977;28;20285;-48
2022/04/25 06:41:48;;;;;;;;;;;;;;;;;;5115599;28;19915;-43
2022/04/25 06:44:15;;;;;;;;;;;;;;;;;;5115450;28;19986;-41
2022/04/25 06:46:42;;;;;;;;;;;;;;;;;;5115664;28;19976;-47
2022/04/25 06:49:21;;;;;;;;;;;;;;;;;;5114877;28;19923;-49
2022/04/25 06:51:47;;;;;;;;;;;;;;;;;;5114959;28;19911;-51
2022/04/25 06:54:14;;;;;;;;;;;;;;;;;;5115012;28;19918;-51
2022/04/25 06:56:41;;;;;;;;;;;;;;;;;;5115158;28;20368;-47
2022/04/25 06:59:07;;;;;;;;;;;;;;;;;;5114974;28;20412;-48
2022/04/25 07:01:33;;;;;;;;;;;;;;;;;;5115403;28;20321;-56
2022/04/25 07:04:00;;;;;;;;;;;;;;;;;;5114788;28;20331;-46
2022/04/25 07:06:27;;;;;;;;;;;;;;;;;;5114063;28;19953;-51
2022/04/25 07:08:53;;;;;;;;;;;;;;;;;;5114684;28;20334;-52
2022/04/25 07:11:20;;;;;;;;;;;;;;;;;;5114548;28;19912;-53
2022/04/25 07:13:46;;;;;;;;;;;;;;;;;;5114888;28;19930;-53
2022/04/25 07:16:13;;;;;;;;;;;;;;;;;;5115261;28;19968;-46
2022/04/25 07:18:39;;;;;;;;;;;;;;;;;;5114789;28;20358;-50
2022/04/25 07:29:20;;;;;;;;;;;;;;;;;;5114726;28;20072;-50
2022/04/25 07:31:47;;;;;;;;;;;;;;;;;;5114173;28;20281;-52
2022/04/25 07:34:13;;;;;;;;;;;;;;;;;;5114959;28;20025;-56
2022/04/25 07:36:40;;;;;;;;;;;;;;;;;;5114843;28;19943;-41
2022/04/25 07:39:06;;;;;;;;;;;;;;;;;;5113946;28;19914;-54
2022/04/25 07:41:33;;;;;;;;;;;;;;;;;;5114423;28;20415;-52
2022/04/25 07:43:59;;;;;;;;;;;;;;;;;;5114294;28;20327;-54
2022/04/25 07:46:26;;;;;;;;;;;;;;;;;;5114276;28;19908;-40
2022/04/25 07:48:53;;;;;;;;;;;;;;;;;;5114150;28;20330;-56
2022/04/25 07:51:19;;;;;;;;;;;;;;;;;;5113578;28;19908;-54
2022/04/25 07:53:45;;;;;;;;;;;;;;;;;;5114249;28;20048;-58
2022/04/25 07:56:12;;;;;;;;;;;;;;;;;;5113999;28;19908;-53
2022/04/25 07:58:39;;;;;;;;;;;;;;;;;;5113779;28;19907;-50
2022/04/25 08:01:06;;;;;;;;;;;;;;;;;;5113404;27;20008;-45
2022/04/25 08:03:35;;;;;;;;;;;;;;;;;;5114032;28;19907;-49
2022/04/25 08:06:01;;;;;;;;;;;;;;;;;;5113340;28;19920;-49
2022/04/25 08:08:27;;;;;;;;;;;;;;;;;;5113531;28;19920;-54
2022/04/25 08:10:54;;;;;;;;;;;;;;;;;;5114216;28;19914;-55
2022/04/25 08:18:51;;;;;;;;;;;;;;;;;;5113827;28;20004;-54
2022/04/25 08:21:18;;;;;;;;;;;;;;;;;;5113356;28;19907;-43
2022/04/25 08:23:47;;;;;;;;;;;;;;;;;;5113834;28;20289;-45
2022/04/25 08:26:13;;;;;;;;;;;;;;;;;;5113756;28;20243;-41
2022/04/25 08:28:41;;;;;;;;;;;;;;;;;;5113902;28;19959;-40
2022/04/25 08:31:09;;;;;;;;;;;;;;;;;;5113311;28;19953;-42
2022/04/25 08:33:36;;;;;;;;;;;;;;;;;;5113588;28;19946;-43
2022/04/25 08:36:03;;;;;;;;;;;;;;;;;;5113154;28;19908;-48
2022/04/25 08:38:29;;;;;;;;;;;;;;;;;;5113312;28;19953;-52
2022/04/25 08:40:56;;;;;;;;;;;;;;;;;;5113868;28;20270;-46
2022/04/25 08:43:22;;;;;;;;;;;;;;;;;;5113414;28;20069;-50
2022/04/25 08:45:49;;;;;;;;;;;;;;;;;;5113509;28;19908;-53
2022/04/25 08:48:15;;;;;;;;;;;;;;;;;;5113417;28;20018;-52
2022/04/25 08:50:41;;;;;;;;;;;;;;;;;;5113088;28;19931;-48
2022/04/25 08:53:08;;;;;;;;;;;;;;;;;;5113299;28;19908;-55
2022/04/25 08:55:34;;;;;;;;;;;;;;;;;;5113255;28;20369;-51
2022/04/25 08:58:01;;;;;;;;;;;;;;;;;;5113007;28;19908;-50
2022/04/25 09:00:28;;;;;;;;;;;;;;;;;;5113047;28;20048;-54
2022/04/25 09:02:54;;;;;;;;;;;;;;;;;;5113142;28;19907;-56
2022/04/25 09:05:21;;;;;;;;;;;;;;;;;;5111920;28;19920;-53
2022/04/25 09:07:47;;;;;;;;;;;;;;;;;;5113286;28;19911;-54
2022/04/25 09:10:14;;;;;;;;;;;;;;;;;;5112817;28;20007;-44
2022/04/25 09:12:45;;;;;;;;;;;;;;;;;;5113166;28;19911;-50
2022/04/25 09:15:11;;;;;;;;;;;;;;;;;;5112857;28;19977;-55
2022/04/25 09:17:38;;;;;;;;;;;;;;;;;;5113265;28;19908;-49
2022/04/25 09:20:05;;;;;;;;;;;;;;;;;;5111333;28;19908;-54
2022/04/25 09:22:32;;;;;;;;;;;;;;;;;;5112610;28;20381;-53
2022/04/25 09:24:59;;;;;;;;;;;;;;;;;;5111554;28;19918;-46
2022/04/25 09:27:25;;;;;;;;;;;;;;;;;;5112891;28;19914;-46
2022/04/25 09:29:52;;;;;;;;;;;;;;;;;;5113797;28;19908;-46
2022/04/25 09:32:18;;;;;;;;;;;;;;;;;;5117200;27;19908;-52
2022/04/25 09:35:00;;;;;;;;;;;;;;;;;;5116790;28;20370;-54
2022/04/25 09:37:26;;;;;;;;;;;;;;;;;;5115774;28;19952;-46
2022/04/25 09:39:53;;;;;;;;;;;;;;;;;;5117099;28;19907;-43
2022/04/25 09:42:19;;;;;;;;;;;;;;;;;;5116879;28;20068;-48
2022/04/25 09:44:46;;;;;;;;;;;;;;;;;;5117019;28;20381;-49
2022/04/25 09:47:12;;;;;;;;;;;;;;;;;;5116188;28;19908;-51
2022/04/25 09:49:39;;;;;;;;;;;;;;;;;;5116272;27;19916;-48
2022/04/25 09:52:05;;;;;;;;;;;;;;;;;;5116576;27;20214;-54
2022/04/25 09:54:33;;;;;;;;;;;;;;;;;;5116494;28;19931;-49
2022/04/25 09:56:59;;;;;;;;;;;;;;;;;;5116548;28;19991;-47
2022/04/25 09:59:26;;;;;;;;;;;;;;;;;;5116192;28;19908;-53
2022/04/25 10:01:53;;;;;;;;;;;;;;;;;;5116512;28;19961;-57
2022/04/25 10:04:19;;;;;;;;;;;;;;;;;;5115485;27;20398;-47
2022/04/25 10:06:46;;;;;;;;;;;;;;;;;;5116420;28;20239;-52
2022/04/25 10:09:13;;;;;;;;;;;;;;;;;;5115999;28;20006;-51
2022/04/25 10:11:39;;;;;;;;;;;;;;;;;;5115909;28;19907;-52
2022/04/25 10:14:06;;;;;;;;;;;;;;;;;;5116251;28;19908;-51
2022/04/25 10:16:33;;;;;;;;;;;;;;;;;;5116176;28;19945;-52
2022/04/25 10:19:00;;;;;;;;;;;;;;;;;;5116071;28;19912;-55
2022/04/25 10:21:29;;;;;;;;;;;;;;;;;;5116073;28;19915;-51
2022/04/25 10:23:57;;;;;;;;;;;;;;;;;;5116160;28;19908;-50
2022/04/25 10:26:23;;;;;;;;;;;;;;;;;;5115983;28;19915;-51
2022/04/25 10:28:50;;;;;;;;;;;;;;;;;;5115699;28;20027;-55
2022/04/25 10:31:16;;;;;;;;;;;;;;;;;;5115855;28;20319;-45
2022/04/25 10:33:43;;;;;;;;;;;;;;;;;;5115867;28;20335;-57
2022/04/25 10:36:09;;;;;;;;;;;;;;;;;;5115775;28;19917;-56
2022/04/25 10:38:48;;;;;;;;;;;;;;;;;;5115637;28;19977;-48
2022/04/25 10:44:10;;;;;;;;;;;;;;;;;;5116007;28;19914;-51
2022/04/25 10:46:37;;;;;;;;;;;;;;;;;;5115936;28;19915;-49
2022/04/25 10:49:03;;;;;;;;;;;;;;;;;;5115283;27;19922;-53
2022/04/25 10:51:31;;;;;;;;;;;;;;;;;;5115797;28;19912;-57
2022/04/25 10:54:01;;;;;;;;;;;;;;;;;;5115614;28;19907;-53
2022/04/25 10:56:27;;;;;;;;;;;;;;;;;;5115077;28;19912;-50
2022/04/25 10:58:54;;;;;;;;;;;;;;;;;;5114245;28;19907;-46
2022/04/25 11:01:20;;;;;;;;;;;;;;;;;;5115271;28;19959;-52
2022/04/25 11:03:47;;;;;;;;;;;;;;;;;;5096070;28;19954;-50
2022/04/25 11:06:13;;;;;;;;;;;;;;;;;;5094962;28;20418;-46
2022/04/25 11:08:40;;;;;;;;;;;;;;;;;;5094803;28;20398;-48
2022/04/25 11:11:08;;;;;;;;;;;;;;;;;;5094468;28;19940;-52
2022/04/25 11:13:35;;;;;;;;;;;;;;;;;;5094955;28;19907;-55
2022/04/25 11:16:02;;;;;;;;;;;;;;;;;;5094878;28;19908;-54
2022/04/25 11:18:33;;;;;;;;;;;;;;;;;;5094590;28;19909;-44
2022/04/25 11:21:02;;;;;;;;;;;;;;;;;;5094565;28;19908;-49
2022/04/25 11:23:30;;;;;;;;;;;;;;;;;;5111219;28;19908;-55
2022/04/25 11:25:56;;;;;;;;;;;;;;;;;;5115287;28;20320;-47
2022/04/25 11:28:23;;;;;;;;;;;;;;;;;;5114605;28;20354;-44
2022/04/25 11:30:49;;;;;;;;;;;;;;;;;;5115282;28;20021;-44
2022/04/25 11:33:16;;;;;;;;;;;;;;;;;;5115039;28;19908;-51
2022/04/25 11:35:43;;;;;;;;;;;;;;;;;;5114939;28;19996;-52
2022/04/25 11:38:09;;;;;;;;;;;;;;;;;;5114771;28;19907;-54
2022/04/25 11:40:36;;;;;;;;;;;;;;;;;;5114736;28;20418;-54
2022/04/25 11:43:05;;;;;;;;;;;;;;;;;;5114524;28;19953;-42
2022/04/25 11:45:31;;;;;;;;;;;;;;;;;;5114624;28;19908;-54
2022/04/25 11:47:59;;;;;;;;;;;;;;;;;;5114593;28;19919;-52
2022/04/25 11:50:26;;;;;;;;;;;;;;;;;;5114562;28;19915;-54
2022/04/25 11:52:52;;;;;;;;;;;;;;;;;;5113594;28;19908;-52
2022/04/25 11:55:19;;;;;;;;;;;;;;;;;;5114025;28;19908;-59
2022/04/25 11:57:48;;;;;;;;;;;;;;;;;;5114288;28;20393;-55
2022/04/25 12:00:15;;;;;;;;;;;;;;;;;;5114317;28;19953;-49
2022/04/25 12:02:41;;;;;;;;;;;;;;;;;;5114341;28;20316;-55
2022/04/25 12:05:08;;;;;;;;;;;;;;;;;;5113645;28;19930;-48
2022/04/25 12:07:35;;;;;;;;;;;;;;;;;;5114207;28;19919;-51
2022/04/25 12:15:43;;;;;;;;;;;;;;;;;;5094234;28;19958;-51
2022/04/25 12:18:10;;;;;;;;;;;;;;;;;;5093387;28;20358;-52
2022/04/25 12:20:36;;;;;;;;;;;;;;;;;;5093825;28;20324;-54
2022/04/25 12:23:02;;;;;;;;;;;;;;;;;;5093770;28;19908;-55
2022/04/25 12:25:29;;;;;;;;;;;;;;;;;;5100858;28;19908;-53
2022/04/25 12:27:55;;;;;;;;;;;;;;;;;;5114091;28;19912;-55
2022/04/25 12:30:22;;;;;;;;;;;;;;;;;;5114184;28;19915;-54
2022/04/25 12:32:48;;;;;;;;;;;;;;;;;;5113824;28;19915;-45
2022/04/25 12:35:15;;;;;;;;;;;;;;;;;;5113926;28;19973;-53
2022/04/25 12:37:41;;;;;;;;;;;;;;;;;;5114075;28;20000;-56
2022/04/25 12:40:08;;;;;;;;;;;;;;;;;;5113769;28;19908;-56
2022/04/25 12:42:34;;;;;;;;;;;;;;;;;;5109346;28;19955;-54
2022/04/25 12:45:01;;;;;;;;;;;;;;;;;;5093546;28;19916;-54
2022/04/25 12:47:28;;;;;;;;;;;;;;;;;;5093109;28;19998;-55
2022/04/25 12:49:54;;;;;;;;;;;;;;;;;;5093500;28;19912;-54
2022/04/25 12:52:21;;;;;;;;;;;;;;;;;;5093229;28;20355;-53
2022/04/25 12:54:48;;;;;;;;;;;;;;;;;;5093830;28;19908;-54
2022/04/25 12:57:15;;;;;;;;;;;;;;;;;;5093084;28;19934;-41
2022/04/25 12:59:42;;;;;;;;;;;;;;;;;;5093374;28;19908;-41
2022/04/25 13:02:17;;;;;;;;;;;;;;;;;;5093320;28;19913;-40
2022/04/25 13:04:44;;;;;;;;;;;;;;;;;;5093981;28;20087;-43
2022/04/25 13:07:10;;;;;;;;;;;;;;;;;;5096880;28;19919;-41
2022/04/25 13:09:37;;;;;;;;;;;;;;;;;;5095631;28;20377;-46
2022/04/25 13:12:04;;;;;;;;;;;;;;;;;;5100689;28;20269;-40
2022/04/25 13:14:30;;;;;;;;;;;;;;;;;;5117812;28;19912;-42
2022/04/25 13:16:57;;;;;;;;;;;;;;;;;;5117540;28;19908;-45
2022/04/25 13:19:23;;;;;;;;;;;;;;;;;;5117357;28;19911;-40
2022/04/25 13:21:50;;;;;;;;;;;;;;;;;;5117426;28;20393;-49
2022/04/25 13:24:16;;;;;;;;;;;;;;;;;;5116542;28;19908;-46
2022/04/25 13:26:44;;;;;;;;;;;;;;;;;;5097382;28;19909;-50
2022/04/25 13:29:10;;;;;;;;;;;;;;;;;;5096678;28;19949;-53
2022/04/25 13:31:36;;;;;;;;;;;;;;;;;;5097025;28;19922;-47
2022/04/25 13:34:03;;;;;;;;;;;;;;;;;;5095349;28;19908;-48
2022/04/25 13:36:30;;;;;;;;;;;;;;;;;;5096667;28;19951;-52
2022/04/25 13:38:56;;;;;;;;;;;;;;;;;;5096625;28;19908;-45
2022/04/25 13:41:23;;;;;;;;;;;;;;;;;;5096583;28;20536;-46
2022/04/25 13:43:50;;;;;;;;;;;;;;;;;;5096887;28;19908;-47
2022/04/25 13:46:17;;;;;;;;;;;;;;;;;;5096830;28;19915;-44
2022/04/25 13:48:43;;;;;;;;;;;;;;;;;;5096321;28;19916;-49
2022/04/25 13:51:10;;;;;;;;;;;;;;;;;;5096193;28;19927;-49
2022/04/25 13:53:38;;;;;;;;;;;;;;;;;;5096400;28;19952;-41
2022/04/25 13:56:04;;;;;;;;;;;;;;;;;;5096622;28;19908;-51
2022/04/25 13:58:31;;;;;;;;;;;;;;;;;;5096482;28;19912;-48
2022/04/25 14:00:57;;;;;;;;;;;;;;;;;;5096692;28;19908;-54
2022/04/25 14:03:27;;;;;;;;;;;;;;;;;;5095972;28;19908;-52
2022/04/25 14:05:54;;;;;;;;;;;;;;;;;;5096219;28;20007;-46
2022/04/25 14:08:21;;;;;;;;;;;;;;;;;;5096172;28;19924;-47
2022/04/25 14:10:47;;;;;;;;;;;;;;;;;;5096417;28;19939;-49
2022/04/25 14:13:14;;;;;;;;;;;;;;;;;;5096076;28;19908;-48
2022/04/25 14:15:40;;;;;;;;;;;;;;;;;;5095753;28;19912;-52
2022/04/25 14:18:07;;;;;;;;;;;;;;;;;;5096013;28;19996;-51
2022/04/25 14:20:34;;;;;;;;;;;;;;;;;;5095763;28;19999;-49
2022/04/25 14:23:00;;;;;;;;;;;;;;;;;;5096150;28;19944;-45
2022/04/25 14:25:26;;;;;;;;;;;;;;;;;;5095919;28;19908;-47
2022/04/25 14:27:53;;;;;;;;;;;;;;;;;;5095922;28;19912;-51
2022/04/25 14:30:19;;;;;;;;;;;;;;;;;;5095599;28;19913;-45
2022/04/25 14:32:46;;;;;;;;;;;;;;;;;;5095814;28;19982;-47
2022/04/25 14:35:12;;;;;;;;;;;;;;;;;;5095632;28;20005;-51
2022/04/25 14:37:39;;;;;;;;;;;;;;;;;;5095771;28;19908;-46
2022/04/25 14:40:05;;;;;;;;;;;;;;;;;;5094668;28;19912;-44
2022/04/25 14:42:32;;;;;;;;;;;;;;;;;;5111453;28;20273;-45
2022/04/25 14:44:58;;;;;;;;;;;;;;;;;;5116149;28;20319;-48
2022/04/25 14:47:25;;;;;;;;;;;;;;;;;;5115602;28;20277;-51
2022/04/25 14:55:21;;;;;;;;;;;;;;;;;;5115986;28;19926;-45
2022/04/25 14:57:51;;;;;;;;;;;;;;;;;;5115736;28;19960;-55
2022/04/25 15:00:34;;;;;;;;;;;;;;;;;;5115373;28;19918;-48
2022/04/25 15:03:00;;;;;;;;;;;;;;;;;;5115145;28;19911;-51
2022/04/25 15:05:27;;;;;;;;;;;;;;;;;;5115194;28;19919;-44
2022/04/25 15:07:53;;;;;;;;;;;;;;;;;;5115287;28;20342;-45
2022/04/25 15:10:20;;;;;;;;;;;;;;;;;;5115391;28;20116;-49
2022/04/25 15:12:46;;;;;;;;;;;;;;;;;;5115451;28;19908;-49
2022/04/25 15:15:13;;;;;;;;;;;;;;;;;;5115305;28;19948;-51
2022/04/25 15:17:39;;;;;;;;;;;;;;;;;;5115305;28;19908;-44
2022/04/25 15:20:07;;;;;;;;;;;;;;;;;;5097827;28;19951;-48
2022/04/25 15:22:34;;;;;;;;;;;;;;;;;;5094739;28;20380;-43
2022/04/25 15:25:01;;;;;;;;;;;;;;;;;;5094497;28;20261;-47
2022/04/25 15:27:27;;;;;;;;;;;;;;;;;;5093682;28;19912;-46
2022/04/25 15:29:54;;;;;;;;;;;;;;;;;;5094687;28;19920;-45
2022/04/25 15:32:20;;;;;;;;;;;;;;;;;;5098346;28;19911;-51
2022/04/25 15:34:48;;;;;;;;;;;;;;;;;;5115066;28;19915;-42
2022/04/25 15:37:15;;;;;;;;;;;;;;;;;;5114633;28;19915;-46
2022/04/25 15:39:44;;;;;;;;;;;;;;;;;;5115263;28;19908;-50
2022/04/25 15:42:14;;;;;;;;;;;;;;;;;;5114034;28;19955;-45
2022/04/25 15:44:41;;;;;;;;;;;;;;;;;;5114961;28;20003;-40
2022/04/25 15:47:07;;;;;;;;;;;;;;;;;;5114305;28;19938;-46
2022/04/25 15:49:34;;;;;;;;;;;;;;;;;;5114837;28;20362;-52
2022/04/25 15:52:00;;;;;;;;;;;;;;;;;;5114667;28;19912;-45
2022/04/25 15:59:56;;;;;;;;;;;;;;;;;;5114556;28;19977;-48
2022/04/25 16:02:22;;;;;;;;;;;;;;;;;;5114372;28;19915;-52
2022/04/25 16:04:49;;;;;;;;;;;;;;;;;;5114355;28;19964;-52
2022/04/25 16:07:17;;;;;;;;;;;;;;;;;;5114423;28;19946;-50
2022/04/25 16:09:44;;;;;;;;;;;;;;;;;;5113315;28;20282;-54
2022/04/25 16:12:11;;;;;;;;;;;;;;;;;;5114378;28;19919;-48
2022/04/25 16:14:38;;;;;;;;;;;;;;;;;;5114200;28;19916;-51
2022/04/25 16:17:04;;;;;;;;;;;;;;;;;;5113925;28;20262;-51
2022/04/25 16:19:31;;;;;;;;;;;;;;;;;;5114227;28;19912;-49
2022/04/25 16:21:57;;;;;;;;;;;;;;;;;;5114180;28;19953;-49
2022/04/25 16:24:24;;;;;;;;;;;;;;;;;;5096431;28;19908;-53
2022/04/25 16:26:50;;;;;;;;;;;;;;;;;;5093926;28;19912;-53
2022/04/25 16:29:16;;;;;;;;;;;;;;;;;;5093600;28;20306;-49
2022/04/25 16:31:43;;;;;;;;;;;;;;;;;;5097996;28;20344;-51
2022/04/25 16:34:09;;;;;;;;;;;;;;;;;;5114196;28;19921;-55
2022/04/25 16:36:36;;;;;;;;;;;;;;;;;;5114170;28;19961;-47
2022/04/25 16:39:02;;;;;;;;;;;;;;;;;;5113094;28;19947;-43
2022/04/25 16:41:30;;;;;;;;;;;;;;;;;;5114082;28;19908;-53
2022/04/25 16:43:56;;;;;;;;;;;;;;;;;;5113792;28;19908;-52
2022/04/25 16:46:23;;;;;;;;;;;;;;;;;;5113930;28;19915;-53
2022/04/25 16:48:49;;;;;;;;;;;;;;;;;;5113627;28;19923;-50
2022/04/25 16:51:16;;;;;;;;;;;;;;;;;;5113297;28;19908;-54
2022/04/25 16:53:42;;;;;;;;;;;;;;;;;;5113870;28;19908;-53
2022/04/25 16:56:09;;;;;;;;;;;;;;;;;;5113316;28;19999;-50
2022/04/25 16:58:36;;;;;;;;;;;;;;;;;;5113587;28;20398;-56
2022/04/25 17:01:02;;;;;;;;;;;;;;;;;;5113728;28;20407;-55
2022/04/25 17:03:29;;;;;;;;;;;;;;;;;;5113390;28;20277;-53
2022/04/25 17:05:57;;;;;;;;;;;;;;;;;;5113061;28;20332;-53
2022/04/25 17:08:23;;;;;;;;;;;;;;;;;;5113465;28;19916;-51
2022/04/25 17:10:50;;;;;;;;;;;;;;;;;;5113452;28;19908;-54
2022/04/25 17:13:18;;;;;;;;;;;;;;;;;;5112884;28;19914;-55
2022/04/25 17:15:45;;;;;;;;;;;;;;;;;;5113289;28;19990;-50
2022/04/25 17:18:11;;;;;;;;;;;;;;;;;;5113568;28;19960;-45
2022/04/25 17:20:38;;;;;;;;;;;;;;;;;;5113345;28;19908;-52
2022/04/25 17:23:04;;;;;;;;;;;;;;;;;;5113262;28;19908;-55
2022/04/25 17:25:31;;;;;;;;;;;;;;;;;;5112994;28;19916;-52